createdAt,value
2019-05-22T00:00:41.506Z,99.90
2019-05-22T00:03:27.693Z,99.90
2019-05-22T00:05:58.501Z,99.90
2019-05-22T00:08:27.625Z,99.90
2019-05-22T00:10:58.444Z,99.90
2019-05-22T00:13:34.981Z,99.90
2019-05-22T00:16:04.367Z,99.90
2019-05-22T00:18:33.645Z,99.90
2019-05-22T00:21:04.625Z,99.90
2019-05-22T00:23:35.172Z,99.90
2019-05-22T00:26:05.651Z,99.90
2019-05-22T00:28:36.300Z,99.90
2019-05-22T00:31:05.922Z,99.90
2019-05-22T00:33:36.622Z,99.90
2019-05-22T00:36:06.689Z,99.90
2019-05-22T00:38:37.426Z,99.90
2019-05-22T00:41:07.956Z,99.90
2019-05-22T00:43:41.453Z,99.90
2019-05-22T00:46:12.772Z,99.90
2019-05-22T00:48:46.402Z,99.90
2019-05-22T00:51:20.651Z,99.90
2019-05-22T00:53:55.553Z,99.90
2019-05-22T00:56:28.128Z,99.90
2019-05-22T00:59:17.772Z,99.90
2019-05-22T01:01:51.831Z,99.90
2019-05-22T01:04:26.205Z,99.90
2019-05-22T01:06:58.096Z,99.90
2019-05-22T01:09:32.742Z,99.90
2019-05-22T01:12:02.881Z,99.90
2019-05-22T01:14:42.606Z,99.90
2019-05-22T01:17:04.362Z,99.90
2019-05-22T01:19:34.335Z,99.90
2019-05-22T01:22:05.545Z,99.90
2019-05-22T01:24:34.925Z,99.90
2019-05-22T01:27:04.550Z,99.90
2019-05-22T01:29:34.356Z,99.90
2019-05-22T01:32:06.759Z,99.90
2019-05-22T01:34:37.764Z,99.90
2019-05-22T01:37:08.616Z,99.90
2019-05-22T01:39:48.204Z,99.90
2019-05-22T01:42:22.359Z,99.90
2019-05-22T01:45:04.101Z,99.90
2019-05-22T01:47:42.732Z,99.90
2019-05-22T01:50:16.000Z,99.90
2019-05-22T01:52:48.544Z,99.90
2019-05-22T01:55:19.695Z,99.90
2019-05-22T01:57:50.661Z,99.90
2019-05-22T02:00:21.787Z,99.90
2019-05-22T02:02:52.007Z,99.90
2019-05-22T02:05:21.144Z,99.90
2019-05-22T02:07:50.821Z,99.90
2019-05-22T02:10:26.058Z,99.90
2019-05-22T02:13:02.822Z,99.90
2019-05-22T02:15:33.929Z,99.90
2019-05-22T02:18:07.812Z,99.90
2019-05-22T02:20:38.237Z,99.90
2019-05-22T02:23:08.784Z,99.90
2019-05-22T02:25:38.172Z,99.90
2019-05-22T02:28:09.349Z,99.90
2019-05-22T02:30:39.976Z,99.90
2019-05-22T02:33:10.473Z,99.90
2019-05-22T02:35:40.848Z,99.90
2019-05-22T02:38:10.528Z,99.90
2019-05-22T02:40:42.565Z,99.90
2019-05-22T02:43:12.878Z,99.90
2019-05-22T02:45:42.254Z,99.90
2019-05-22T02:48:12.088Z,99.90
2019-05-22T02:50:42.114Z,99.90
2019-05-22T02:53:13.989Z,99.90
2019-05-22T02:55:43.505Z,99.90
2019-05-22T02:58:13.186Z,99.90
2019-05-22T03:00:57.342Z,99.90
2019-05-22T03:03:27.208Z,99.90
2019-05-22T03:05:56.468Z,99.90
2019-05-22T03:08:35.217Z,99.90
2019-05-22T03:11:07.460Z,99.90
2019-05-22T03:13:59.840Z,99.90
2019-05-22T03:16:38.140Z,99.90
2019-05-22T03:19:09.437Z,99.90
2019-05-22T03:21:40.486Z,99.90
2019-05-22T03:24:09.877Z,99.90
2019-05-22T03:26:42.507Z,99.90
2019-05-22T03:29:13.725Z,99.90
2019-05-22T03:31:42.334Z,99.90
2019-05-22T03:34:13.467Z,99.90
2019-05-22T03:36:42.118Z,99.90
2019-05-22T03:39:13.492Z,99.90
2019-05-22T03:41:43.030Z,99.60
2019-05-22T03:44:13.888Z,99.80
2019-05-22T03:46:46.190Z,99.90
2019-05-22T03:49:29.691Z,99.90
2019-05-22T03:51:50.907Z,99.90
2019-05-22T03:54:22.378Z,99.90
2019-05-22T03:56:53.040Z,99.90
2019-05-22T03:59:22.609Z,99.90
2019-05-22T04:01:52.525Z,99.90
2019-05-22T04:04:36.711Z,99.90
2019-05-22T04:07:07.630Z,99.90
2019-05-22T04:09:39.749Z,99.90
2019-05-22T04:12:10.682Z,99.90
2019-05-22T04:14:40.899Z,99.90
2019-05-22T04:17:12.112Z,99.90
2019-05-22T04:19:49.250Z,99.90
2019-05-22T04:22:13.309Z,99.90
2019-05-22T04:24:43.067Z,99.90
2019-05-22T04:27:12.998Z,99.90
2019-05-22T04:29:43.179Z,99.90
2019-05-22T04:32:33.252Z,99.90
2019-05-22T04:35:03.904Z,99.60
2019-05-22T04:37:33.101Z,99.40
2019-05-22T04:40:25.676Z,99.30
2019-05-22T04:42:57.009Z,99.10
2019-05-22T04:45:26.815Z,98.70
2019-05-22T04:48:02.607Z,98.30
2019-05-22T04:50:32.460Z,98.20
2019-05-22T04:53:02.116Z,98.20
2019-05-22T04:55:33.174Z,97.80
2019-05-22T04:58:10.960Z,97.60
2019-05-22T05:00:41.010Z,97.60
2019-05-22T05:03:12.238Z,97.20
2019-05-22T05:05:42.225Z,96.10
2019-05-22T05:08:14.154Z,96.70
2019-05-22T05:10:47.853Z,96.60
2019-05-22T05:13:17.501Z,96.70
2019-05-22T05:15:46.779Z,96.20
2019-05-22T05:18:16.162Z,95.60
2019-05-22T05:20:45.391Z,95.70
2019-05-22T05:23:15.081Z,94.90
2019-05-22T05:25:44.884Z,94.30
2019-05-22T05:28:16.222Z,94.80
2019-05-22T05:30:45.935Z,94.70
2019-05-22T05:33:15.577Z,94.10
2019-05-22T05:35:45.320Z,94.80
2019-05-22T05:38:16.243Z,95.20
2019-05-22T05:40:46.470Z,94.80
2019-05-22T05:43:16.834Z,95.10
2019-05-22T05:45:48.831Z,94.00
2019-05-22T05:48:20.722Z,94.00
2019-05-22T05:51:12.823Z,94.10
2019-05-22T05:54:01.526Z,94.40
2019-05-22T05:56:33.495Z,94.80
2019-05-22T05:59:04.753Z,95.30
2019-05-22T06:01:39.384Z,94.50
2019-05-22T06:04:09.225Z,94.40
2019-05-22T06:06:44.503Z,94.60
2019-05-22T06:09:16.734Z,94.40
2019-05-22T06:11:49.276Z,94.20
2019-05-22T06:14:31.169Z,93.60
2019-05-22T06:17:25.814Z,94.20
2019-05-22T06:19:59.653Z,93.40
2019-05-22T06:22:29.254Z,92.00
2019-05-22T06:25:03.193Z,92.80
2019-05-22T06:27:35.674Z,92.90
2019-05-22T06:30:11.084Z,92.80
2019-05-22T06:33:08.685Z,92.60
2019-05-22T06:35:38.719Z,92.70
2019-05-22T06:38:38.642Z,92.10
2019-05-22T06:41:08.804Z,91.50
2019-05-22T06:43:41.182Z,91.50
2019-05-22T06:46:11.924Z,90.10
2019-05-22T06:48:41.869Z,91.10
2019-05-22T06:51:19.531Z,90.40
2019-05-22T06:53:41.610Z,90.00
2019-05-22T06:56:10.753Z,89.20
2019-05-22T06:58:39.940Z,90.30
2019-05-22T07:01:09.228Z,90.90
2019-05-22T07:03:38.398Z,90.90
2019-05-22T07:06:07.833Z,90.90
2019-05-22T07:08:37.383Z,89.30
2019-05-22T07:11:06.706Z,88.10
2019-05-22T07:13:35.931Z,88.20
2019-05-22T07:16:05.444Z,87.30
2019-05-22T07:18:34.618Z,86.00
2019-05-22T07:21:04.033Z,84.10
2019-05-22T07:23:35.010Z,85.70
2019-05-22T07:26:06.216Z,83.40
2019-05-22T07:28:36.442Z,85.60
2019-05-22T07:31:07.692Z,84.90
2019-05-22T07:33:37.216Z,86.00
2019-05-22T07:36:10.971Z,85.40
2019-05-22T07:38:37.019Z,85.90
2019-05-22T07:41:07.842Z,86.00
2019-05-22T07:43:41.341Z,86.80
2019-05-22T07:46:09.449Z,80.70
2019-05-22T07:48:39.162Z,80.10
2019-05-22T07:51:10.340Z,82.60
2019-05-22T07:53:38.942Z,82.80
2019-05-22T07:56:11.553Z,82.00
2019-05-22T07:58:41.277Z,84.50
2019-05-22T08:01:11.161Z,80.80
2019-05-22T08:03:43.712Z,83.50
2019-05-22T08:06:13.363Z,79.20
2019-05-22T08:08:44.614Z,81.80
2019-05-22T08:11:14.616Z,82.30
2019-05-22T08:13:45.126Z,82.40
2019-05-22T08:16:16.091Z,84.30
2019-05-22T08:18:46.154Z,78.80
2019-05-22T08:21:16.867Z,81.70
2019-05-22T08:23:46.523Z,80.60
2019-05-22T08:26:16.892Z,80.60
2019-05-22T08:28:47.331Z,79.50
2019-05-22T08:31:18.318Z,78.40
2019-05-22T08:33:48.272Z,80.70
2019-05-22T08:36:18.393Z,77.40
2019-05-22T08:38:48.711Z,75.60
2019-05-22T08:41:20.919Z,76.70
2019-05-22T08:44:13.529Z,74.90
2019-05-22T08:46:22.150Z,73.30
2019-05-22T08:48:52.999Z,73.50
2019-05-22T08:51:22.570Z,76.90
2019-05-22T08:53:53.347Z,75.30
2019-05-22T08:56:23.983Z,75.20
2019-05-22T08:58:54.240Z,75.00
2019-05-22T09:01:24.077Z,74.20
2019-05-22T09:03:53.619Z,76.80
2019-05-22T09:06:23.060Z,76.00
2019-05-22T09:08:52.219Z,74.90
2019-05-22T09:11:21.485Z,75.70
2019-05-22T09:13:50.662Z,75.20
2019-05-22T09:16:19.983Z,74.70
2019-05-22T09:18:49.444Z,75.40
2019-05-22T09:21:18.802Z,75.30
2019-05-22T09:23:48.059Z,71.60
2019-05-22T09:26:18.925Z,73.00
2019-05-22T09:28:48.386Z,75.10
2019-05-22T09:31:18.528Z,74.10
2019-05-22T09:33:48.299Z,71.60
2019-05-22T09:36:18.439Z,71.60
2019-05-22T09:38:51.896Z,70.50
2019-05-22T09:41:19.661Z,71.10
2019-05-22T09:43:48.902Z,70.20
2019-05-22T09:46:18.839Z,69.70
2019-05-22T09:48:48.122Z,70.70
2019-05-22T09:51:17.329Z,67.30
2019-05-22T09:53:48.302Z,65.60
2019-05-22T09:56:18.360Z,69.30
2019-05-22T09:58:47.552Z,72.90
2019-05-22T10:01:17.512Z,66.50
2019-05-22T10:03:47.086Z,68.10
2019-05-22T10:06:16.547Z,66.80
2019-05-22T10:08:45.833Z,68.80
2019-05-22T10:11:15.866Z,66.50
2019-05-22T10:13:45.221Z,65.30
2019-05-22T10:16:14.568Z,67.50
2019-05-22T10:18:44.257Z,70.20
2019-05-22T10:21:14.196Z,68.30
2019-05-22T10:23:45.053Z,64.70
2019-05-22T10:26:14.855Z,53.10
2019-05-22T10:28:44.065Z,57.00
2019-05-22T10:31:16.099Z,59.60
2019-05-22T10:33:44.282Z,56.80
2019-05-22T10:36:14.169Z,58.20
2019-05-22T10:38:43.815Z,57.10
2019-05-22T10:41:13.451Z,61.50
2019-05-22T10:43:43.897Z,57.90
2019-05-22T10:46:13.265Z,53.10
2019-05-22T10:48:42.598Z,53.80
2019-05-22T10:51:11.959Z,49.80
2019-05-22T10:53:41.897Z,46.90
2019-05-22T10:56:11.908Z,46.10
2019-05-22T10:58:41.215Z,43.60
2019-05-22T11:01:10.481Z,43.10
2019-05-22T11:03:39.830Z,43.40
2019-05-22T11:06:09.272Z,42.40
2019-05-22T11:08:39.578Z,38.90
2019-05-22T11:11:09.195Z,39.70
2019-05-22T11:13:39.358Z,39.80
2019-05-22T11:16:10.112Z,33.30
2019-05-22T11:18:39.383Z,34.80
2019-05-22T11:21:08.744Z,33.70
2019-05-22T11:23:51.411Z,34.80
2019-05-22T11:26:08.424Z,36.00
2019-05-22T11:28:37.895Z,35.40
2019-05-22T11:31:08.335Z,34.20
2019-05-22T11:33:37.569Z,36.60
2019-05-22T11:36:07.909Z,34.30
2019-05-22T11:38:37.122Z,34.30
2019-05-22T11:41:07.960Z,36.70
2019-05-22T11:43:37.246Z,36.90
2019-05-22T11:46:06.776Z,38.00
2019-05-22T11:48:36.327Z,41.00
2019-05-22T11:51:05.684Z,41.20
2019-05-22T11:53:35.845Z,39.00
2019-05-22T11:56:05.313Z,36.00
2019-05-22T11:58:34.496Z,35.60
2019-05-22T12:01:03.782Z,34.70
2019-05-22T12:03:34.828Z,35.30
2019-05-22T12:06:04.507Z,34.30
2019-05-22T12:08:33.963Z,33.40
2019-05-22T12:11:03.548Z,34.50
2019-05-22T12:13:34.127Z,33.10
2019-05-22T12:16:04.730Z,32.90
2019-05-22T12:18:35.031Z,34.60
2019-05-22T12:21:04.293Z,34.10
2019-05-22T12:23:34.144Z,32.40
2019-05-22T12:26:03.407Z,33.90
2019-05-22T12:28:32.786Z,33.70
2019-05-22T12:31:02.765Z,34.20
2019-05-22T12:33:32.665Z,32.00
2019-05-22T12:36:02.216Z,34.00
2019-05-22T12:38:32.966Z,36.60
2019-05-22T12:41:04.045Z,38.10
2019-05-22T12:43:34.305Z,39.70
2019-05-22T12:46:04.279Z,41.70
2019-05-22T12:48:34.616Z,40.40
2019-05-22T12:51:04.168Z,38.90
2019-05-22T12:53:34.347Z,40.80
2019-05-22T12:56:03.921Z,39.30
2019-05-22T12:58:33.752Z,36.50
2019-05-22T13:01:03.803Z,35.40
2019-05-22T13:03:35.033Z,34.40
2019-05-22T13:06:05.431Z,34.90
2019-05-22T13:08:35.884Z,37.20
2019-05-22T13:11:06.733Z,37.00
2019-05-22T13:13:37.169Z,36.90
2019-05-22T13:16:07.831Z,35.80
2019-05-22T13:18:37.350Z,35.00
2019-05-22T13:21:08.101Z,32.20
2019-05-22T13:23:38.201Z,32.30
2019-05-22T13:26:08.867Z,29.50
2019-05-22T13:28:39.529Z,28.70
2019-05-22T13:31:09.369Z,28.60
2019-05-22T13:33:40.128Z,28.20
2019-05-22T13:36:10.190Z,29.00
2019-05-22T13:38:40.299Z,28.70
2019-05-22T13:41:10.839Z,29.20
2019-05-22T13:43:40.271Z,29.00
2019-05-22T13:46:09.933Z,29.10
2019-05-22T13:48:39.266Z,31.60
2019-05-22T13:51:10.537Z,34.30
2019-05-22T13:53:41.370Z,34.00
2019-05-22T13:56:10.320Z,32.20
2019-05-22T13:58:39.731Z,31.30
2019-05-22T14:01:09.782Z,29.90
2019-05-22T14:03:39.866Z,29.40
2019-05-22T14:06:09.531Z,28.00
2019-05-22T14:08:38.769Z,28.30
2019-05-22T14:11:08.540Z,29.50
2019-05-22T14:13:38.622Z,29.20
2019-05-22T14:16:07.996Z,29.10
2019-05-22T14:18:37.684Z,29.60
2019-05-22T14:21:06.917Z,29.50
2019-05-22T14:23:36.204Z,29.60
2019-05-22T14:26:05.509Z,31.10
2019-05-22T14:28:36.338Z,30.40
2019-05-22T14:31:05.021Z,31.00
2019-05-22T14:33:34.364Z,31.30
2019-05-22T14:36:04.713Z,31.10
2019-05-22T14:38:34.097Z,31.80
2019-05-22T14:41:04.938Z,31.00
2019-05-22T14:43:34.036Z,29.70
2019-05-22T14:46:03.958Z,30.20
2019-05-22T14:48:33.819Z,30.50
2019-05-22T14:51:02.953Z,31.50
2019-05-22T14:53:33.685Z,32.20
2019-05-22T14:56:03.713Z,32.70
2019-05-22T14:58:34.885Z,33.40
2019-05-22T15:01:05.254Z,32.10
2019-05-22T15:03:34.634Z,31.90
2019-05-22T15:06:04.589Z,30.30
2019-05-22T15:08:33.989Z,29.30
2019-05-22T15:11:03.221Z,29.10
2019-05-22T15:13:32.527Z,29.20
2019-05-22T15:16:04.195Z,29.40
2019-05-22T15:18:33.459Z,28.60
2019-05-22T15:21:05.821Z,28.80
2019-05-22T15:23:35.383Z,28.60
2019-05-22T15:26:04.629Z,29.30
2019-05-22T15:28:34.292Z,30.30
2019-05-22T15:31:03.945Z,30.80
2019-05-22T15:33:35.064Z,31.10
2019-05-22T15:36:08.782Z,32.00
2019-05-22T15:38:41.095Z,31.50
2019-05-22T15:41:11.494Z,31.30
2019-05-22T15:43:41.458Z,32.10
2019-05-22T15:46:12.550Z,32.60
2019-05-22T15:48:43.312Z,32.50
2019-05-22T15:51:13.939Z,32.60
2019-05-22T15:53:47.951Z,31.90
2019-05-22T15:56:18.143Z,32.40
2019-05-22T15:58:50.384Z,32.80
2019-05-22T16:01:22.107Z,33.40
2019-05-22T16:03:51.851Z,34.10
2019-05-22T16:06:23.545Z,34.00
2019-05-22T16:08:53.963Z,33.90
2019-05-22T16:11:25.778Z,35.30
2019-05-22T16:13:56.618Z,36.80
2019-05-22T16:16:26.773Z,37.30
2019-05-22T16:19:00.070Z,38.50
2019-05-22T16:21:29.839Z,38.80
2019-05-22T16:23:59.711Z,39.10
2019-05-22T16:26:29.948Z,39.40
2019-05-22T16:29:00.591Z,40.30
2019-05-22T16:31:31.409Z,42.00
2019-05-22T16:34:01.051Z,43.60
2019-05-22T16:36:30.986Z,43.40
2019-05-22T16:39:00.640Z,43.60
2019-05-22T16:41:31.796Z,41.80
2019-05-22T16:44:01.103Z,41.40
2019-05-22T16:46:31.027Z,41.30
2019-05-22T16:49:00.313Z,43.30
2019-05-22T16:51:31.479Z,46.40
2019-05-22T16:54:07.408Z,48.40
2019-05-22T16:56:39.504Z,49.20
2019-05-22T16:59:10.338Z,52.10
2019-05-22T17:01:57.517Z,54.90
2019-05-22T17:04:12.201Z,57.30
2019-05-22T17:06:43.157Z,57.70
2019-05-22T17:09:13.583Z,57.40
2019-05-22T17:11:43.055Z,58.00
2019-05-22T17:14:14.667Z,58.60
2019-05-22T17:16:44.826Z,57.90
2019-05-22T17:19:26.434Z,55.90
2019-05-22T17:21:45.442Z,57.00
2019-05-22T17:24:15.292Z,55.80
2019-05-22T17:26:44.905Z,58.10
2019-05-22T17:29:14.964Z,58.00
2019-05-22T17:31:44.931Z,59.90
2019-05-22T17:34:33.629Z,61.50
2019-05-22T17:37:09.680Z,61.50
2019-05-22T17:39:41.056Z,64.20
2019-05-22T17:42:13.297Z,65.20
2019-05-22T17:44:46.118Z,67.30
2019-05-22T17:47:17.510Z,67.70
2019-05-22T17:49:47.307Z,67.80
2019-05-22T17:52:20.157Z,68.00
2019-05-22T17:54:51.241Z,68.70
2019-05-22T17:57:21.615Z,69.50
2019-05-22T17:59:51.728Z,71.80
2019-05-22T18:02:22.857Z,73.40
2019-05-22T18:04:51.370Z,73.30
2019-05-22T18:07:22.080Z,74.00
2019-05-22T18:09:51.801Z,75.60
2019-05-22T18:12:22.224Z,75.90
2019-05-22T18:14:51.690Z,76.80
2019-05-22T18:17:24.566Z,77.00
2019-05-22T18:19:53.967Z,77.40
2019-05-22T18:22:23.472Z,77.80
2019-05-22T18:24:52.676Z,78.40
2019-05-22T18:27:25.079Z,79.30
2019-05-22T18:29:53.723Z,81.40
2019-05-22T18:32:23.229Z,84.80
2019-05-22T18:34:54.799Z,87.30
2019-05-22T18:37:23.224Z,88.40
2019-05-22T18:39:52.750Z,87.20
2019-05-22T18:42:23.385Z,88.70
2019-05-22T18:44:52.525Z,89.20
2019-05-22T18:47:22.326Z,86.40
2019-05-22T18:49:53.203Z,86.00
2019-05-22T18:52:22.517Z,86.60
2019-05-22T18:54:51.879Z,86.70
2019-05-22T18:57:22.189Z,86.80
2019-05-22T18:59:51.612Z,87.40
2019-05-22T19:02:21.957Z,89.40
2019-05-22T19:04:51.152Z,90.70
2019-05-22T19:07:20.414Z,91.10
2019-05-22T19:09:49.689Z,91.70
2019-05-22T19:12:19.362Z,92.00
2019-05-22T19:14:49.343Z,92.40
2019-05-22T19:17:18.795Z,92.90
2019-05-22T19:19:49.122Z,93.40
2019-05-22T19:22:18.873Z,93.50
2019-05-22T19:24:47.969Z,93.60
2019-05-22T19:27:17.101Z,94.00
2019-05-22T19:29:46.331Z,94.10
2019-05-22T19:32:16.029Z,94.10
2019-05-22T19:34:45.422Z,94.00
2019-05-22T19:37:14.709Z,94.00
2019-05-22T19:39:44.230Z,94.20
2019-05-22T19:42:13.960Z,93.80
2019-05-22T19:44:43.740Z,93.60
2019-05-22T19:47:13.594Z,93.60
2019-05-22T19:49:43.999Z,94.20
2019-05-22T19:52:14.476Z,95.40
2019-05-22T19:54:44.551Z,95.90
2019-05-22T19:57:13.999Z,95.80
2019-05-22T19:59:43.995Z,96.10
2019-05-22T20:02:15.188Z,96.30
2019-05-22T20:04:46.246Z,96.80
2019-05-22T20:07:15.868Z,96.70
2019-05-22T20:09:46.803Z,96.90
2019-05-22T20:12:17.211Z,97.00
2019-05-22T20:14:48.089Z,97.20
2019-05-22T20:17:17.422Z,97.70
2019-05-22T20:19:46.678Z,98.00
2019-05-22T20:22:15.873Z,98.00
2019-05-22T20:24:45.257Z,98.50
2019-05-22T20:27:14.797Z,98.30
2019-05-22T20:29:44.835Z,98.10
2019-05-22T20:32:14.118Z,98.50
2019-05-22T20:34:43.894Z,98.50
2019-05-22T20:37:13.462Z,98.60
2019-05-22T20:39:42.698Z,98.60
2019-05-22T20:42:12.160Z,98.50
2019-05-22T20:44:42.615Z,98.40
2019-05-22T20:47:11.895Z,98.80
2019-05-22T20:49:44.335Z,98.70
2019-05-22T20:52:14.574Z,98.70
2019-05-22T20:54:45.254Z,98.50
2019-05-22T20:57:19.638Z,98.60
2019-05-22T20:59:47.894Z,98.80
2019-05-22T21:02:20.297Z,98.80
2019-05-22T21:04:51.550Z,98.90
2019-05-22T21:07:26.683Z,98.80
2019-05-22T21:09:56.464Z,98.90
2019-05-22T21:12:26.618Z,98.90
2019-05-22T21:14:56.748Z,99.00
2019-05-22T21:17:26.364Z,98.90
2019-05-22T21:19:56.430Z,99.00
2019-05-22T21:22:27.442Z,98.90
2019-05-22T21:24:56.642Z,99.10
2019-05-22T21:27:26.548Z,99.50
2019-05-22T21:29:56.217Z,99.40
2019-05-22T21:32:25.923Z,99.60
2019-05-22T21:34:56.856Z,99.80
2019-05-22T21:37:26.904Z,99.90
2019-05-22T21:39:56.965Z,99.90
2019-05-22T21:42:26.752Z,99.90
2019-05-22T21:44:57.273Z,99.90
2019-05-22T21:47:26.545Z,99.90
2019-05-22T21:49:55.852Z,99.90
2019-05-22T21:52:25.052Z,99.90
2019-05-22T21:54:54.513Z,99.90
2019-05-22T21:57:23.981Z,99.90
2019-05-22T21:59:53.836Z,99.90
2019-05-22T22:02:27.700Z,99.90
2019-05-22T22:04:56.984Z,99.90
2019-05-22T22:07:27.540Z,99.90
2019-05-22T22:09:59.046Z,99.90
2019-05-22T22:12:29.183Z,99.90
2019-05-22T22:14:58.439Z,99.90
2019-05-22T22:17:30.601Z,99.90
2019-05-22T22:20:00.199Z,99.90
2019-05-22T22:22:30.839Z,99.90
2019-05-22T22:25:01.020Z,99.90
2019-05-22T22:27:31.591Z,99.90
2019-05-22T22:30:02.636Z,99.90
2019-05-22T22:32:32.464Z,99.90
2019-05-22T22:35:01.947Z,99.90
2019-05-22T22:37:32.350Z,99.90
2019-05-22T22:40:02.643Z,99.90
2019-05-22T22:42:36.802Z,99.90
2019-05-22T22:45:07.441Z,99.90
2019-05-22T22:47:38.819Z,99.90
2019-05-22T22:50:09.921Z,99.90
2019-05-22T22:52:40.086Z,99.90
2019-05-22T22:55:13.224Z,99.90
2019-05-22T22:57:42.552Z,99.90
2019-05-22T23:00:15.351Z,99.90
2019-05-22T23:02:46.236Z,99.90
2019-05-22T23:05:17.010Z,99.90
2019-05-22T23:07:48.031Z,99.90
2019-05-22T23:10:19.356Z,99.90
2019-05-22T23:12:49.374Z,99.90
2019-05-22T23:15:19.346Z,99.90
2019-05-22T23:17:49.419Z,99.90
2019-05-22T23:20:17.569Z,99.90
2019-05-22T23:22:45.642Z,99.90
2019-05-22T23:25:17.197Z,99.90
2019-05-22T23:27:46.591Z,99.90
2019-05-22T23:30:15.923Z,99.90
2019-05-22T23:32:46.733Z,99.90
2019-05-22T23:35:17.326Z,99.90
2019-05-22T23:37:46.604Z,99.90
2019-05-22T23:40:18.799Z,99.90
2019-05-22T23:42:48.618Z,99.90
2019-05-22T23:45:20.515Z,99.90
2019-05-22T23:47:53.559Z,99.90
2019-05-22T23:50:23.283Z,99.90
2019-05-22T23:52:52.975Z,99.90
2019-05-22T23:55:23.501Z,99.90
2019-05-22T23:57:53.098Z,99.90
